<?xml version="1.0" encoding="UTF-8" standalone="no" ?>
<gpx xmlns="http://www.topografix.com/GPX/1/1" xmlns:xsi="http://www.w3.org/2001/XMLSchema-instance" xsi:schemaLocation="http://www.topografix.com/GPX/1/1 http://www.topografix.com/GPX/1/1/gpx.xsd" version="1.1" creator="VisuGPX - https://www.visugpx.com">
  <metadata>
    <name>Honeck</name>
    <desc><![CDATA[assez physique en montée comme en descente. quelques zones très raides. Pas de danger particulier]]></desc>
  </metadata>
  <trk>
    <name><![CDATA[Hohneck]]></name>
    <extensions>
      <line xmlns="http://www.topografix.com/GPX/gpx_style/0/2">
        <color>0000FF</color>
        <width>4</width>
      </line>
    </extensions>
    <trkseg>
      <trkpt lat="48.01052" lon="7.05365">
        <ele>496</ele>
        <time>2018-12-26T17:47:35Z</time>
      </trkpt>
      <trkpt lat="48.01065" lon="7.05224">
        <ele>500</ele>
        <time>2018-12-26T17:48:35Z</time>
      </trkpt>
      <trkpt lat="48.00968" lon="7.04868">
        <ele>501</ele>
        <time>2018-12-26T17:49:35Z</time>
      </trkpt>
      <trkpt lat="48.00876" lon="7.04305">
        <ele>522</ele>
        <time>2018-12-26T17:50:35Z</time>
      </trkpt>
      <trkpt lat="48.00956" lon="7.04031">
        <ele>538</ele>
        <time>2018-12-26T17:51:35Z</time>
      </trkpt>
      <trkpt lat="48.01103" lon="7.03915">
        <ele>553</ele>
        <time>2018-12-26T17:52:35Z</time>
      </trkpt>
      <trkpt lat="48.01123" lon="7.03743">
        <ele>551</ele>
        <time>2018-12-26T17:53:35Z</time>
      </trkpt>
      <trkpt lat="48.01212" lon="7.03632">
        <ele>558</ele>
        <time>2018-12-26T17:54:35Z</time>
      </trkpt>
      <trkpt lat="48.01275" lon="7.03507">
        <ele>568</ele>
        <time>2018-12-26T17:55:35Z</time>
      </trkpt>
      <trkpt lat="48.01384" lon="7.03353">
        <ele>577</ele>
        <time>2018-12-26T17:56:35Z</time>
      </trkpt>
      <trkpt lat="48.01502" lon="7.03121">
        <ele>597</ele>
        <time>2018-12-26T17:57:35Z</time>
      </trkpt>
      <trkpt lat="48.0176" lon="7.02932">
        <ele>635</ele>
        <time>2018-12-26T17:58:35Z</time>
      </trkpt>
      <trkpt lat="48.01961" lon="7.02855">
        <ele>658</ele>
        <time>2018-12-26T17:59:35Z</time>
      </trkpt>
      <trkpt lat="48.02113" lon="7.02803">
        <ele>690</ele>
        <time>2018-12-26T18:00:35Z</time>
      </trkpt>
      <trkpt lat="48.02185" lon="7.02851">
        <ele>720</ele>
        <time>2018-12-26T18:01:35Z</time>
      </trkpt>
      <trkpt lat="48.02271" lon="7.02791">
        <ele>753</ele>
        <time>2018-12-26T18:02:35Z</time>
      </trkpt>
      <trkpt lat="48.0236" lon="7.02589">
        <ele>777</ele>
        <time>2018-12-26T18:03:35Z</time>
      </trkpt>
      <trkpt lat="48.0232" lon="7.024">
        <ele>783</ele>
        <time>2018-12-26T18:04:35Z</time>
      </trkpt>
      <trkpt lat="48.0203" lon="7.02494">
        <ele>846</ele>
        <time>2018-12-26T18:05:35Z</time>
      </trkpt>
      <trkpt lat="48.01915" lon="7.02383">
        <ele>924</ele>
        <time>2018-12-26T18:06:35Z</time>
      </trkpt>
      <trkpt lat="48.01872" lon="7.02276">
        <ele>941</ele>
        <time>2018-12-26T18:07:35Z</time>
      </trkpt>
      <trkpt lat="48.01866" lon="7.0219">
        <ele>960</ele>
        <time>2018-12-26T18:08:35Z</time>
      </trkpt>
      <trkpt lat="48.01714" lon="7.02173">
        <ele>992</ele>
        <time>2018-12-26T18:09:35Z</time>
      </trkpt>
      <trkpt lat="48.01955" lon="7.02031">
        <ele>1032</ele>
        <time>2018-12-26T18:10:35Z</time>
      </trkpt>
      <trkpt lat="48.01797" lon="7.01864">
        <ele>1067</ele>
        <time>2018-12-26T18:11:35Z</time>
      </trkpt>
      <trkpt lat="48.01737" lon="7.01688">
        <ele>1109</ele>
        <time>2018-12-26T18:12:35Z</time>
      </trkpt>
      <trkpt lat="48.01639" lon="7.01443">
        <ele>1154</ele>
        <time>2018-12-26T18:13:35Z</time>
      </trkpt>
      <trkpt lat="48.0149" lon="7.01241">
        <ele>1163</ele>
        <time>2018-12-26T18:14:35Z</time>
      </trkpt>
      <trkpt lat="48.01665" lon="7.01327">
        <ele>1186</ele>
        <time>2018-12-26T18:15:35Z</time>
      </trkpt>
      <trkpt lat="48.01829" lon="7.01254">
        <ele>1232</ele>
        <time>2018-12-26T18:16:35Z</time>
      </trkpt>
      <trkpt lat="48.02013" lon="7.0098">
        <ele>1287</ele>
        <time>2018-12-26T18:17:35Z</time>
      </trkpt>
      <trkpt lat="48.0215" lon="7.00735">
        <ele>1298</ele>
        <time>2018-12-26T18:18:35Z</time>
      </trkpt>
      <trkpt lat="48.02282" lon="7.00662">
        <ele>1289</ele>
        <time>2018-12-26T18:19:35Z</time>
      </trkpt>
      <trkpt lat="48.02449" lon="7.00752">
        <ele>1278</ele>
        <time>2018-12-26T18:20:35Z</time>
      </trkpt>
      <trkpt lat="48.02595" lon="7.00868">
        <ele>1272</ele>
        <time>2018-12-26T18:21:35Z</time>
      </trkpt>
      <trkpt lat="48.02877" lon="7.00907">
        <ele>1274</ele>
        <time>2018-12-26T18:22:35Z</time>
      </trkpt>
      <trkpt lat="48.0294" lon="7.01108">
        <ele>1284</ele>
        <time>2018-12-26T18:23:35Z</time>
      </trkpt>
      <trkpt lat="48.03049" lon="7.01198">
        <ele>1287</ele>
        <time>2018-12-26T18:24:35Z</time>
      </trkpt>
      <trkpt lat="48.03129" lon="7.01366">
        <ele>1283</ele>
        <time>2018-12-26T18:25:35Z</time>
      </trkpt>
      <trkpt lat="48.03244" lon="7.0119">
        <ele>1299</ele>
        <time>2018-12-26T18:26:35Z</time>
      </trkpt>
      <trkpt lat="48.0337" lon="7.0101">
        <ele>1292</ele>
        <time>2018-12-26T18:27:35Z</time>
      </trkpt>
      <trkpt lat="48.03488" lon="7.01125">
        <ele>1271</ele>
        <time>2018-12-26T18:28:35Z</time>
      </trkpt>
      <trkpt lat="48.03654" lon="7.01301">
        <ele>1315</ele>
        <time>2018-12-26T18:29:35Z</time>
      </trkpt>
      <trkpt lat="48.03706" lon="7.01452">
        <ele>1338</ele>
        <time>2018-12-26T18:30:35Z</time>
      </trkpt>
      <trkpt lat="48.03735" lon="7.01662">
        <ele>1354</ele>
        <time>2018-12-26T18:31:35Z</time>
      </trkpt>
      <trkpt lat="48.0372" lon="7.01937">
        <ele>1321</ele>
        <time>2018-12-26T18:32:35Z</time>
      </trkpt>
      <trkpt lat="48.03683" lon="7.02198">
        <ele>1289</ele>
        <time>2018-12-26T18:33:35Z</time>
      </trkpt>
      <trkpt lat="48.03594" lon="7.0264">
        <ele>1225</ele>
        <time>2018-12-26T18:34:35Z</time>
      </trkpt>
      <trkpt lat="48.03405" lon="7.02851">
        <ele>1193</ele>
        <time>2018-12-26T18:35:35Z</time>
      </trkpt>
      <trkpt lat="48.03247" lon="7.03057">
        <ele>1160</ele>
        <time>2018-12-26T18:36:35Z</time>
      </trkpt>
      <trkpt lat="48.03149" lon="7.03185">
        <ele>1163</ele>
        <time>2018-12-26T18:37:35Z</time>
      </trkpt>
      <trkpt lat="48.0292" lon="7.0334">
        <ele>1136</ele>
        <time>2018-12-26T18:38:35Z</time>
      </trkpt>
      <trkpt lat="48.03032" lon="7.03104">
        <ele>1109</ele>
        <time>2018-12-26T18:39:35Z</time>
      </trkpt>
      <trkpt lat="48.03066" lon="7.03014">
        <ele>1086</ele>
        <time>2018-12-26T18:40:35Z</time>
      </trkpt>
      <trkpt lat="48.03026" lon="7.02979">
        <ele>1062</ele>
        <time>2018-12-26T18:41:35Z</time>
      </trkpt>
      <trkpt lat="48.03095" lon="7.02889">
        <ele>1043</ele>
        <time>2018-12-26T18:42:35Z</time>
      </trkpt>
      <trkpt lat="48.03011" lon="7.02846">
        <ele>1007</ele>
        <time>2018-12-26T18:43:35Z</time>
      </trkpt>
      <trkpt lat="48.03098" lon="7.02739">
        <ele>990</ele>
        <time>2018-12-26T18:44:35Z</time>
      </trkpt>
      <trkpt lat="48.0292" lon="7.02748">
        <ele>944</ele>
        <time>2018-12-26T18:45:35Z</time>
      </trkpt>
      <trkpt lat="48.02859" lon="7.02546">
        <ele>931</ele>
        <time>2018-12-26T18:46:35Z</time>
      </trkpt>
      <trkpt lat="48.02788" lon="7.02572">
        <ele>927</ele>
        <time>2018-12-26T18:47:35Z</time>
      </trkpt>
      <trkpt lat="48.02713" lon="7.02537">
        <ele>926</ele>
        <time>2018-12-26T18:48:35Z</time>
      </trkpt>
      <trkpt lat="48.02549" lon="7.02619">
        <ele>874</ele>
        <time>2018-12-26T18:49:35Z</time>
      </trkpt>
      <trkpt lat="48.02475" lon="7.02555">
        <ele>842</ele>
        <time>2018-12-26T18:50:35Z</time>
      </trkpt>
      <trkpt lat="48.02369" lon="7.02426">
        <ele>788</ele>
        <time>2018-12-26T18:51:35Z</time>
      </trkpt>
      <trkpt lat="48.0232" lon="7.02533">
        <ele>770</ele>
        <time>2018-12-26T18:52:35Z</time>
      </trkpt>
      <trkpt lat="48.0232" lon="7.02752">
        <ele>768</ele>
        <time>2018-12-26T18:53:35Z</time>
      </trkpt>
      <trkpt lat="48.02216" lon="7.02885">
        <ele>746</ele>
        <time>2018-12-26T18:54:35Z</time>
      </trkpt>
      <trkpt lat="48.02182" lon="7.03018">
        <ele>729</ele>
        <time>2018-12-26T18:55:35Z</time>
      </trkpt>
      <trkpt lat="48.02096" lon="7.0316">
        <ele>699</ele>
        <time>2018-12-26T18:56:35Z</time>
      </trkpt>
      <trkpt lat="48.02021" lon="7.0334">
        <ele>701</ele>
        <time>2018-12-26T18:57:35Z</time>
      </trkpt>
      <trkpt lat="48.01924" lon="7.03434">
        <ele>707</ele>
        <time>2018-12-26T18:58:35Z</time>
      </trkpt>
      <trkpt lat="48.01777" lon="7.03559">
        <ele>673</ele>
        <time>2018-12-26T18:59:35Z</time>
      </trkpt>
      <trkpt lat="48.01628" lon="7.03619">
        <ele>649</ele>
        <time>2018-12-26T19:00:35Z</time>
      </trkpt>
      <trkpt lat="48.01418" lon="7.03889">
        <ele>639</ele>
        <time>2018-12-26T19:01:35Z</time>
      </trkpt>
      <trkpt lat="48.01197" lon="7.04009">
        <ele>612</ele>
        <time>2018-12-26T19:02:35Z</time>
      </trkpt>
      <trkpt lat="48.01082" lon="7.04078">
        <ele>596</ele>
        <time>2018-12-26T19:03:35Z</time>
      </trkpt>
      <trkpt lat="48.0097" lon="7.04263">
        <ele>560</ele>
        <time>2018-12-26T19:04:35Z</time>
      </trkpt>
      <trkpt lat="48.01039" lon="7.0479">
        <ele>531</ele>
        <time>2018-12-26T19:05:35Z</time>
      </trkpt>
      <trkpt lat="48.01097" lon="7.05232">
        <ele>505</ele>
        <time>2018-12-26T19:06:35Z</time>
      </trkpt>
    </trkseg>
  </trk>
</gpx>